sensor_id;sensor_type;location;lat;lon;timestamp;pressure;altitude;pressure_sealevel;temperature
20490;BMP280;10403;54.092;12.122;2023-08-30T00:01:30;100964.66;;;18.08
20490;BMP280;10403;54.092;12.122;2023-08-30T00:03:58;100951.59;;;18.03
20490;BMP280;10403;54.092;12.122;2023-08-30T00:06:25;100954.81;;;18.11
20490;BMP280;10403;54.092;12.122;2023-08-30T00:08:52;100944.34;;;18.08
20490;BMP280;10403;54.092;12.122;2023-08-30T00:11:19;100926.25;;;17.98
20490;BMP280;10403;54.092;12.122;2023-08-30T00:13:46;100947.81;;;18.10
20490;BMP280;10403;54.092;12.122;2023-08-30T00:16:14;100948.66;;;18.11
20490;BMP280;10403;54.092;12.122;2023-08-30T00:18:44;100955.06;;;18.05
20490;BMP280;10403;54.092;12.122;2023-08-30T00:21:14;100962.81;;;18.10
20490;BMP280;10403;54.092;12.122;2023-08-30T00:23:43;100957.75;;;18.04
20490;BMP280;10403;54.092;12.122;2023-08-30T00:26:10;100917.16;;;17.83
20490;BMP280;10403;54.092;12.122;2023-08-30T00:28:37;100958.56;;;18.06
20490;BMP280;10403;54.092;12.122;2023-08-30T00:31:04;100943.66;;;18.03
20490;BMP280;10403;54.092;12.122;2023-08-30T00:33:32;100948.84;;;18.06
20490;BMP280;10403;54.092;12.122;2023-08-30T00:36:00;100941.03;;;18.03
20490;BMP280;10403;54.092;12.122;2023-08-30T00:38:28;100942.75;;;18.04
20490;BMP280;10403;54.092;12.122;2023-08-30T00:40:55;100939.44;;;17.99
20490;BMP280;10403;54.092;12.122;2023-08-30T00:43:22;100940.16;;;18.03
20490;BMP280;10403;54.092;12.122;2023-08-30T00:45:50;100942.88;;;18.01
20490;BMP280;10403;54.092;12.122;2023-08-30T00:48:20;100932.66;;;17.92
20490;BMP280;10403;54.092;12.122;2023-08-30T00:50:48;100934.53;;;17.90
20490;BMP280;10403;54.092;12.122;2023-08-30T00:53:16;100938.75;;;17.94
20490;BMP280;10403;54.092;12.122;2023-08-30T00:55:43;100950.53;;;17.87
20490;BMP280;10403;54.092;12.122;2023-08-30T00:58:11;100941.78;;;17.85
20490;BMP280;10403;54.092;12.122;2023-08-30T01:00:39;100948.69;;;17.89
20490;BMP280;10403;54.092;12.122;2023-08-30T01:03:07;100949.66;;;17.87
20490;BMP280;10403;54.092;12.122;2023-08-30T01:05:37;100958.59;;;17.84
20490;BMP280;10403;54.092;12.122;2023-08-30T01:08:05;100952.63;;;17.79
20490;BMP280;10403;54.092;12.122;2023-08-30T01:10:50;100951.78;;;17.79
20490;BMP280;10403;54.092;12.122;2023-08-30T01:13:21;100948.38;;;17.75
20490;BMP280;10403;54.092;12.122;2023-08-30T01:15:48;100936.31;;;17.68
20490;BMP280;10403;54.092;12.122;2023-08-30T01:18:22;100938.03;;;17.69
20490;BMP280;10403;54.092;12.122;2023-08-30T01:20:53;100930.22;;;17.66
20490;BMP280;10403;54.092;12.122;2023-08-30T01:23:49;100926.88;;;17.61
20490;BMP280;10403;54.092;12.122;2023-08-30T01:26:45;100924.25;;;17.61
20490;BMP280;10403;54.092;12.122;2023-08-30T01:29:19;100927.81;;;17.60
20490;BMP280;10403;54.092;12.122;2023-08-30T01:31:48;100923.53;;;17.56
20490;BMP280;10403;54.092;12.122;2023-08-30T01:34:16;100906.38;;;17.44
20490;BMP280;10403;54.092;12.122;2023-08-30T01:36:44;100924.66;;;17.50
20490;BMP280;10403;54.092;12.122;2023-08-30T01:39:13;100915.97;;;17.47
20490;BMP280;10403;54.092;12.122;2023-08-30T01:41:42;100914.47;;;17.41
20490;BMP280;10403;54.092;12.122;2023-08-30T01:44:12;100911.00;;;17.39
20490;BMP280;10403;54.092;12.122;2023-08-30T01:46:40;100928.47;;;17.43
20490;BMP280;10403;54.092;12.122;2023-08-30T01:49:08;100929.47;;;17.41
20490;BMP280;10403;54.092;12.122;2023-08-30T01:51:37;100922.56;;;17.36
20490;BMP280;10403;54.092;12.122;2023-08-30T01:54:05;100920.09;;;17.32
20490;BMP280;10403;54.092;12.122;2023-08-30T01:56:33;100921.63;;;17.37
20490;BMP280;10403;54.092;12.122;2023-08-30T01:59:00;100919.25;;;17.31
20490;BMP280;10403;54.092;12.122;2023-08-30T02:01:27;100933.19;;;17.35
20490;BMP280;10403;54.092;12.122;2023-08-30T02:03:55;100892.78;;;17.10
20490;BMP280;10403;54.092;12.122;2023-08-30T02:09:09;100929.69;;;17.34
20490;BMP280;10403;54.092;12.122;2023-08-30T02:11:44;100929.75;;;17.33
20490;BMP280;10403;54.092;12.122;2023-08-30T02:14:14;100941.97;;;17.35
20490;BMP280;10403;54.092;12.122;2023-08-30T02:16:47;100930.59;;;17.33
20490;BMP280;10403;54.092;12.122;2023-08-30T02:19:15;100929.75;;;17.33
20490;BMP280;10403;54.092;12.122;2023-08-30T02:21:44;100935.97;;;17.32
20490;BMP280;10403;54.092;12.122;2023-08-30T02:24:11;100909.38;;;17.13
20490;BMP280;10403;54.092;12.122;2023-08-30T02:26:38;100943.00;;;17.33
20490;BMP280;10403;54.092;12.122;2023-08-30T02:29:05;100947.41;;;17.32
20490;BMP280;10403;54.092;12.122;2023-08-30T02:31:32;100951.09;;;17.28
20490;BMP280;10403;54.092;12.122;2023-08-30T02:34:00;100952.00;;;17.27
20490;BMP280;10403;54.092;12.122;2023-08-30T02:36:28;100957.19;;;17.30
20490;BMP280;10403;54.092;12.122;2023-08-30T02:38:55;100952.81;;;17.29
20490;BMP280;10403;54.092;12.122;2023-08-30T02:41:41;100968.72;;;17.28
20490;BMP280;10403;54.092;12.122;2023-08-30T02:44:10;100967.00;;;17.27
20490;BMP280;10403;54.092;12.122;2023-08-30T02:46:38;100965.31;;;17.24
20490;BMP280;10403;54.092;12.122;2023-08-30T02:49:05;100951.31;;;17.22
20490;BMP280;10403;54.092;12.122;2023-08-30T02:51:32;100953.28;;;17.17
20490;BMP280;10403;54.092;12.122;2023-08-30T02:53:59;100953.28;;;17.17
20490;BMP280;10403;54.092;12.122;2023-08-30T02:56:27;100959.25;;;17.22
20490;BMP280;10403;54.092;12.122;2023-08-30T02:58:54;100953.16;;;17.20
20490;BMP280;10403;54.092;12.122;2023-08-30T03:01:21;100945.22;;;17.20
20490;BMP280;10403;54.092;12.122;2023-08-30T03:03:48;100949.47;;;17.24
20490;BMP280;10403;54.092;12.122;2023-08-30T03:06:15;100953.88;;;17.24
20490;BMP280;10403;54.092;12.122;2023-08-30T03:08:42;100947.78;;;17.23
20490;BMP280;10403;54.092;12.122;2023-08-30T03:11:11;100938.38;;;17.15
20490;BMP280;10403;54.092;12.122;2023-08-30T03:13:38;100954.13;;;17.18
20490;BMP280;10403;54.092;12.122;2023-08-30T03:16:14;100943.75;;;17.13
20490;BMP280;10403;54.092;12.122;2023-08-30T03:18:43;100932.22;;;17.14
20490;BMP280;10403;54.092;12.122;2023-08-30T03:21:10;100935.06;;;17.10
20490;BMP280;10403;54.092;12.122;2023-08-30T03:23:39;100934.19;;;17.09
20490;BMP280;10403;54.092;12.122;2023-08-30T03:26:15;100931.66;;;17.06
20490;BMP280;10403;54.092;12.122;2023-08-30T03:28:44;100928.16;;;17.06
20490;BMP280;10403;54.092;12.122;2023-08-30T03:31:17;100932.59;;;17.05
20490;BMP280;10403;54.092;12.122;2023-08-30T03:33:49;100921.50;;;16.95
20490;BMP280;10403;54.092;12.122;2023-08-30T03:36:18;100925.56;;;17.04
20490;BMP280;10403;54.092;12.122;2023-08-30T03:38:46;100917.81;;;16.99
20490;BMP280;10403;54.092;12.122;2023-08-30T03:41:14;100916.84;;;17.02
20490;BMP280;10403;54.092;12.122;2023-08-30T03:43:41;100924.59;;;17.07
20490;BMP280;10403;54.092;12.122;2023-08-30T03:46:08;100913.41;;;17.00
20490;BMP280;10403;54.092;12.122;2023-08-30T03:48:36;100915.84;;;17.05
20490;BMP280;10403;54.092;12.122;2023-08-30T03:51:04;100911.69;;;16.99
20490;BMP280;10403;54.092;12.122;2023-08-30T03:53:31;100900.25;;;16.98
20490;BMP280;10403;54.092;12.122;2023-08-30T03:55:58;100904.56;;;17.01
20490;BMP280;10403;54.092;12.122;2023-08-30T03:58:27;100898.41;;;17.00
20490;BMP280;10403;54.092;12.122;2023-08-30T04:00:54;100891.44;;;16.98
20490;BMP280;10403;54.092;12.122;2023-08-30T04:03:21;100890.44;;;17.02
20490;BMP280;10403;54.092;12.122;2023-08-30T04:05:55;100881.59;;;17.03
20490;BMP280;10403;54.092;12.122;2023-08-30T04:08:23;100863.13;;;17.01
20490;BMP280;10403;54.092;12.122;2023-08-30T04:10:53;100865.72;;;17.03
20490;BMP280;10403;54.092;12.122;2023-08-30T04:13:24;100851.81;;;16.98
20490;BMP280;10403;54.092;12.122;2023-08-30T04:15:51;100858.72;;;17.02
20490;BMP280;10403;54.092;12.122;2023-08-30T04:18:18;100862.28;;;17.01
20490;BMP280;10403;54.092;12.122;2023-08-30T04:20:47;100857.84;;;17.01
20490;BMP280;10403;54.092;12.122;2023-08-30T04:23:14;100857.84;;;17.01
20490;BMP280;10403;54.092;12.122;2023-08-30T04:25:41;100853.59;;;16.97
20490;BMP280;10403;54.092;12.122;2023-08-30T04:28:09;100856.13;;;17.00
20490;BMP280;10403;54.092;12.122;2023-08-30T04:30:37;100850.09;;;16.97
20490;BMP280;10403;54.092;12.122;2023-08-30T04:33:05;100843.22;;;16.93
20490;BMP280;10403;54.092;12.122;2023-08-30T04:35:33;100845.66;;;16.97
20490;BMP280;10403;54.092;12.122;2023-08-30T04:38:01;100844.06;;;16.93
20490;BMP280;10403;54.092;12.122;2023-08-30T04:40:29;100846.63;;;16.95
20490;BMP280;10403;54.092;12.122;2023-08-30T04:42:58;100858.81;;;16.99
20490;BMP280;10403;54.092;12.122;2023-08-30T04:45:26;100856.97;;;17.01
20490;BMP280;10403;54.092;12.122;2023-08-30T04:47:53;100862.22;;;17.02
20490;BMP280;10403;54.092;12.122;2023-08-30T04:50:21;100864.72;;;17.06
20490;BMP280;10403;54.092;12.122;2023-08-30T04:52:48;100869.94;;;17.07
20490;BMP280;10403;54.092;12.122;2023-08-30T04:55:15;100863.63;;;17.11
20490;BMP280;10403;54.092;12.122;2023-08-30T04:57:43;100852.16;;;17.12
20490;BMP280;10403;54.092;12.122;2023-08-30T05:00:13;100863.38;;;17.17
20490;BMP280;10403;54.092;12.122;2023-08-30T05:02:40;100863.28;;;17.20
20490;BMP280;10403;54.092;12.122;2023-08-30T05:05:10;100859.81;;;17.18
20490;BMP280;10403;54.092;12.122;2023-08-30T05:07:37;100863.03;;;17.26
20490;BMP280;10403;54.092;12.122;2023-08-30T05:10:06;100864.63;;;17.30
20490;BMP280;10403;54.092;12.122;2023-08-30T05:12:34;100860.88;;;17.36
20490;BMP280;10403;54.092;12.122;2023-08-30T05:15:02;100869.59;;;17.38
20490;BMP280;10403;54.092;12.122;2023-08-30T05:17:31;100855.47;;;17.39
20490;BMP280;10403;54.092;12.122;2023-08-30T05:19:58;100871.88;;;17.47
20490;BMP280;10403;54.092;12.122;2023-08-30T05:22:26;100854.72;;;17.35
20490;BMP280;10403;54.092;12.122;2023-08-30T05:24:53;100870.91;;;17.50
20490;BMP280;10403;54.092;12.122;2023-08-30T05:27:20;100875.00;;;17.57
20490;BMP280;10403;54.092;12.122;2023-08-30T05:29:47;100875.69;;;17.62
20490;BMP280;10403;54.092;12.122;2023-08-30T05:32:15;100879.03;;;17.67
20490;BMP280;10403;54.092;12.122;2023-08-30T05:34:42;100871.91;;;17.69
20490;BMP280;10403;54.092;12.122;2023-08-30T05:37:09;100878.66;;;17.76
20490;BMP280;10403;54.092;12.122;2023-08-30T05:39:36;100891.72;;;17.81
20490;BMP280;10403;54.092;12.122;2023-08-30T05:42:04;100885.41;;;17.83
20490;BMP280;10403;54.092;12.122;2023-08-30T05:44:31;100881.91;;;17.83
20490;BMP280;10403;54.092;12.122;2023-08-30T05:46:58;100895.22;;;17.81
20490;BMP280;10403;54.092;12.122;2023-08-30T05:49:25;100879.63;;;17.73
20490;BMP280;10403;54.092;12.122;2023-08-30T05:51:52;100887.50;;;17.75
20490;BMP280;10403;54.092;12.122;2023-08-30T05:54:19;100885.78;;;17.74
20490;BMP280;10403;54.092;12.122;2023-08-30T05:56:47;100870.06;;;17.71
20490;BMP280;10403;54.092;12.122;2023-08-30T05:59:14;100876.97;;;17.73
20490;BMP280;10403;54.092;12.122;2023-08-30T06:01:41;100877.84;;;17.74
20490;BMP280;10403;54.092;12.122;2023-08-30T06:04:08;100870.78;;;17.74
20490;BMP280;10403;54.092;12.122;2023-08-30T06:06:36;100875.94;;;17.78
20490;BMP280;10403;54.092;12.122;2023-08-30T06:09:03;100872.56;;;17.74
20490;BMP280;10403;54.092;12.122;2023-08-30T06:11:30;100874.09;;;17.80
20490;BMP280;10403;54.092;12.122;2023-08-30T06:13:57;100875.84;;;17.81
20490;BMP280;10403;54.092;12.122;2023-08-30T06:16:26;100875.09;;;17.77
20490;BMP280;10403;54.092;12.122;2023-08-30T06:18:53;100876.75;;;17.80
20490;BMP280;10403;54.092;12.122;2023-08-30T06:21:20;100878.53;;;17.79
20490;BMP280;10403;54.092;12.122;2023-08-30T06:23:47;100862.91;;;17.73
20490;BMP280;10403;54.092;12.122;2023-08-30T06:26:15;100874.16;;;17.78
20490;BMP280;10403;54.092;12.122;2023-08-30T06:28:42;100864.63;;;17.74
20490;BMP280;10403;54.092;12.122;2023-08-30T06:31:25;100868.19;;;17.73
20490;BMP280;10403;54.092;12.122;2023-08-30T06:33:53;100855.97;;;17.70
20490;BMP280;10403;54.092;12.122;2023-08-30T06:36:21;100867.88;;;17.81
20490;BMP280;10403;54.092;12.122;2023-08-30T06:38:50;100855.75;;;17.75
20490;BMP280;10403;54.092;12.122;2023-08-30T06:41:17;100852.13;;;17.78
20490;BMP280;10403;54.092;12.122;2023-08-30T06:43:44;100861.34;;;17.89
20490;BMP280;10403;54.092;12.122;2023-08-30T06:46:11;100822.56;;;17.68
20490;BMP280;10403;54.092;12.122;2023-08-30T06:48:39;100871.72;;;17.94
20490;BMP280;10403;54.092;12.122;2023-08-30T06:51:06;100864.78;;;17.91
20490;BMP280;10403;54.092;12.122;2023-08-30T06:53:33;100862.22;;;17.90
20490;BMP280;10403;54.092;12.122;2023-08-30T06:56:01;100863.59;;;17.98
20490;BMP280;10403;54.092;12.122;2023-08-30T06:58:29;100860.84;;;18.01
20490;BMP280;10403;54.092;12.122;2023-08-30T07:01:00;100862.41;;;18.05
20490;BMP280;10403;54.092;12.122;2023-08-30T07:03:27;100864.94;;;18.08
20490;BMP280;10403;54.092;12.122;2023-08-30T07:05:54;100864.81;;;18.11
20490;BMP280;10403;54.092;12.122;2023-08-30T07:08:22;100868.09;;;18.17
20490;BMP280;10403;54.092;12.122;2023-08-30T07:10:51;100875.84;;;18.21
20490;BMP280;10403;54.092;12.122;2023-08-30T07:13:18;100869.53;;;18.24
20490;BMP280;10403;54.092;12.122;2023-08-30T07:15:46;100857.22;;;18.23
20490;BMP280;10403;54.092;12.122;2023-08-30T07:18:13;100862.22;;;18.30
20490;BMP280;10403;54.092;12.122;2023-08-30T07:20:41;100865.56;;;18.34
20490;BMP280;10403;54.092;12.122;2023-08-30T07:23:08;100870.31;;;18.46
20490;BMP280;10403;54.092;12.122;2023-08-30T07:25:38;100855.34;;;18.45
20490;BMP280;10403;54.092;12.122;2023-08-30T07:28:06;100860.13;;;18.57
20490;BMP280;10403;54.092;12.122;2023-08-30T07:30:34;100870.31;;;18.66
20490;BMP280;10403;54.092;12.122;2023-08-30T07:33:05;100858.06;;;18.64
20490;BMP280;10403;54.092;12.122;2023-08-30T07:35:32;100872.41;;;18.78
20490;BMP280;10403;54.092;12.122;2023-08-30T07:38:00;100855.41;;;18.82
20490;BMP280;10403;54.092;12.122;2023-08-30T07:40:27;100869.03;;;18.94
20490;BMP280;10403;54.092;12.122;2023-08-30T07:42:56;100864.22;;;19.02
20490;BMP280;10403;54.092;12.122;2023-08-30T07:45:27;100862.16;;;19.08
20490;BMP280;10403;54.092;12.122;2023-08-30T07:47:54;100870.56;;;19.18
20490;BMP280;10403;54.092;12.122;2023-08-30T07:50:22;100874.56;;;19.27
20490;BMP280;10403;54.092;12.122;2023-08-30T07:52:49;100885.66;;;19.35
20490;BMP280;10403;54.092;12.122;2023-08-30T07:55:16;100874.03;;;19.37
20490;BMP280;10403;54.092;12.122;2023-08-30T07:57:43;100871.22;;;19.40
20490;BMP280;10403;54.092;12.122;2023-08-30T08:00:11;100842.56;;;19.30
20490;BMP280;10403;54.092;12.122;2023-08-30T08:02:40;100873.38;;;19.51
20490;BMP280;10403;54.092;12.122;2023-08-30T08:05:08;100861.97;;;19.49
20490;BMP280;10403;54.092;12.122;2023-08-30T08:07:39;100874.88;;;19.56
20490;BMP280;10403;54.092;12.122;2023-08-30T08:10:09;100861.44;;;19.59
20490;BMP280;10403;54.092;12.122;2023-08-30T08:12:38;100867.41;;;19.65
20490;BMP280;10403;54.092;12.122;2023-08-30T08:15:06;100855.53;;;19.72
20490;BMP280;10403;54.092;12.122;2023-08-30T08:17:33;100844.06;;;19.71
20490;BMP280;10403;54.092;12.122;2023-08-30T08:20:01;100864.47;;;19.88
20490;BMP280;10403;54.092;12.122;2023-08-30T08:22:29;100861.72;;;19.89
20490;BMP280;10403;54.092;12.122;2023-08-30T08:24:56;100856.03;;;19.97
20490;BMP280;10403;54.092;12.122;2023-08-30T08:27:27;100857.56;;;20.01
20490;BMP280;10403;54.092;12.122;2023-08-30T08:29:54;100844.16;;;20.04
20490;BMP280;10403;54.092;12.122;2023-08-30T08:32:22;100848.53;;;20.05
20490;BMP280;10403;54.092;12.122;2023-08-30T08:34:49;100856.25;;;20.10
20490;BMP280;10403;54.092;12.122;2023-08-30T08:37:16;100831.66;;;20.06
20490;BMP280;10403;54.092;12.122;2023-08-30T08:39:44;100854.91;;;20.18
20490;BMP280;10403;54.092;12.122;2023-08-30T08:42:17;100837.56;;;20.11
20490;BMP280;10403;54.092;12.122;2023-08-30T08:44:47;100843.97;;;20.24
20490;BMP280;10403;54.092;12.122;2023-08-30T08:47:20;100847.94;;;20.33
20490;BMP280;10403;54.092;12.122;2023-08-30T08:49:48;100847.72;;;20.38
20490;BMP280;10403;54.092;12.122;2023-08-30T08:52:16;100858.25;;;20.39
20490;BMP280;10403;54.092;12.122;2023-08-30T08:54:56;100852.09;;;20.39
20490;BMP280;10403;54.092;12.122;2023-08-30T08:57:24;100841.47;;;20.39
20490;BMP280;10403;54.092;12.122;2023-08-30T08:59:51;100851.78;;;20.45
20490;BMP280;10403;54.092;12.122;2023-08-30T09:02:19;100825.72;;;20.36
20490;BMP280;10403;54.092;12.122;2023-08-30T09:04:47;100846.91;;;20.53
20490;BMP280;10403;54.092;12.122;2023-08-30T09:07:14;100835.84;;;20.45
20490;BMP280;10403;54.092;12.122;2023-08-30T09:09:42;100855.25;;;20.62
20490;BMP280;10403;54.092;12.122;2023-08-30T09:12:09;100845.91;;;20.71
20490;BMP280;10403;54.092;12.122;2023-08-30T09:14:37;100849.78;;;20.81
20490;BMP280;10403;54.092;12.122;2023-08-30T09:17:04;100845.75;;;20.90
20490;BMP280;10403;54.092;12.122;2023-08-30T09:19:31;100840.34;;;20.91
20490;BMP280;10403;54.092;12.122;2023-08-30T09:21:59;100846.03;;;21.01
20490;BMP280;10403;54.092;12.122;2023-08-30T09:24:38;100834.53;;;21.00
20490;BMP280;10403;54.092;12.122;2023-08-30T09:27:08;100835.53;;;20.98
20490;BMP280;10403;54.092;12.122;2023-08-30T09:29:36;100840.53;;;21.04
20490;BMP280;10403;54.092;12.122;2023-08-30T09:32:03;100850.81;;;21.10
20490;BMP280;10403;54.092;12.122;2023-08-30T09:34:30;100851.44;;;21.15
20490;BMP280;10403;54.092;12.122;2023-08-30T09:36:58;100836.75;;;21.08
20490;BMP280;10403;54.092;12.122;2023-08-30T09:39:31;100845.25;;;21.15
20490;BMP280;10403;54.092;12.122;2023-08-30T09:42:00;100826.38;;;21.03
20490;BMP280;10403;54.092;12.122;2023-08-30T09:44:30;100820.88;;;21.06
20490;BMP280;10403;54.092;12.122;2023-08-30T09:46:57;100821.66;;;21.09
20490;BMP280;10403;54.092;12.122;2023-08-30T09:49:26;100837.13;;;21.18
20490;BMP280;10403;54.092;12.122;2023-08-30T09:51:54;100833.53;;;21.19
20490;BMP280;10403;54.092;12.122;2023-08-30T09:54:24;100838.50;;;21.25
20490;BMP280;10403;54.092;12.122;2023-08-30T09:56:55;100834.56;;;21.32
20490;BMP280;10403;54.092;12.122;2023-08-30T09:59:26;100828.19;;;21.34
20490;BMP280;10403;54.092;12.122;2023-08-30T10:01:55;100816.34;;;21.40
20490;BMP280;10403;54.092;12.122;2023-08-30T10:04:24;100825.34;;;21.53
20490;BMP280;10403;54.092;12.122;2023-08-30T10:06:55;100816.88;;;21.61
20490;BMP280;10403;54.092;12.122;2023-08-30T10:09:25;100806.91;;;21.64
20490;BMP280;10403;54.092;12.122;2023-08-30T10:11:53;100803.19;;;21.67
20490;BMP280;10403;54.092;12.122;2023-08-30T10:14:22;100799.34;;;21.72
20490;BMP280;10403;54.092;12.122;2023-08-30T10:16:56;100804.28;;;21.78
20490;BMP280;10403;54.092;12.122;2023-08-30T10:19:27;100799.72;;;21.81
20490;BMP280;10403;54.092;12.122;2023-08-30T10:22:02;100809.66;;;21.93
20490;BMP280;10403;54.092;12.122;2023-08-30T10:24:58;100805.06;;;21.95
20490;BMP280;10403;54.092;12.122;2023-08-30T10:27:47;100809.66;;;21.93
20490;BMP280;10403;54.092;12.122;2023-08-30T10:30:18;100819.81;;;21.86
20490;BMP280;10403;54.092;12.122;2023-08-30T10:32:46;100806.09;;;21.78
20490;BMP280;10403;54.092;12.122;2023-08-30T10:35:18;100810.56;;;21.77
20490;BMP280;10403;54.092;12.122;2023-08-30T10:37:59;100808.66;;;21.79
20490;BMP280;10403;54.092;12.122;2023-08-30T10:40:26;100804.34;;;21.93
20490;BMP280;10403;54.092;12.122;2023-08-30T10:43:01;100813.41;;;22.04
20490;BMP280;10403;54.092;12.122;2023-08-30T10:47:59;100800.19;;;22.17
20490;BMP280;10403;54.092;12.122;2023-08-30T10:50:34;100799.63;;;22.26
20490;BMP280;10403;54.092;12.122;2023-08-30T10:53:01;100803.44;;;22.36
20490;BMP280;10403;54.092;12.122;2023-08-30T10:55:28;100799.06;;;22.49
20490;BMP280;10403;54.092;12.122;2023-08-30T10:58:03;100794.09;;;22.58
20490;BMP280;10403;54.092;12.122;2023-08-30T11:00:33;100792.56;;;22.68
20490;BMP280;10403;54.092;12.122;2023-08-30T11:03:03;100793.09;;;22.73
20490;BMP280;10403;54.092;12.122;2023-08-30T11:05:31;100790.44;;;22.73
20490;BMP280;10403;54.092;12.122;2023-08-30T11:07:58;100780.09;;;22.68
20490;BMP280;10403;54.092;12.122;2023-08-30T11:10:26;100783.16;;;22.62
20490;BMP280;10403;54.092;12.122;2023-08-30T11:12:55;100788.59;;;22.61
20490;BMP280;10403;54.092;12.122;2023-08-30T11:15:25;100775.03;;;22.64
20490;BMP280;10403;54.092;12.122;2023-08-30T11:18:02;100780.19;;;22.67
20490;BMP280;10403;54.092;12.122;2023-08-30T11:20:30;100780.75;;;22.72
20490;BMP280;10403;54.092;12.122;2023-08-30T11:22:57;100788.56;;;22.75
20490;BMP280;10403;54.092;12.122;2023-08-30T11:25:25;100780.94;;;22.83
20490;BMP280;10403;54.092;12.122;2023-08-30T11:28:02;100776.94;;;22.90
20490;BMP280;10403;54.092;12.122;2023-08-30T11:30:30;100774.25;;;22.90
20490;BMP280;10403;54.092;12.122;2023-08-30T11:32:57;100770.06;;;22.86
20490;BMP280;10403;54.092;12.122;2023-08-30T11:35:26;100774.66;;;22.84
20490;BMP280;10403;54.092;12.122;2023-08-30T11:37:54;100770.47;;;22.80
20490;BMP280;10403;54.092;12.122;2023-08-30T11:40:22;100763.78;;;22.73
20490;BMP280;10403;54.092;12.122;2023-08-30T11:42:49;100772.28;;;22.65
20490;BMP280;10403;54.092;12.122;2023-08-30T11:45:17;100774.47;;;22.59
20490;BMP280;10403;54.092;12.122;2023-08-30T11:47:44;100764.94;;;22.55
20490;BMP280;10403;54.092;12.122;2023-08-30T11:50:12;100760.13;;;22.47
20490;BMP280;10403;54.092;12.122;2023-08-30T11:52:40;100760.97;;;22.47
20490;BMP280;10403;54.092;12.122;2023-08-30T11:55:08;100759.16;;;22.48
20490;BMP280;10403;54.092;12.122;2023-08-30T11:57:38;100762.69;;;22.48
20490;BMP280;10403;54.092;12.122;2023-08-30T12:00:12;100762.59;;;22.50
20490;BMP280;10403;54.092;12.122;2023-08-30T12:02:40;100753.06;;;22.46
20490;BMP280;10403;54.092;12.122;2023-08-30T12:05:14;100756.41;;;22.49
20490;BMP280;10403;54.092;12.122;2023-08-30T12:07:42;100750.03;;;22.52
20490;BMP280;10403;54.092;12.122;2023-08-30T12:10:11;100755.06;;;22.57
20490;BMP280;10403;54.092;12.122;2023-08-30T12:12:44;100757.63;;;22.58
20490;BMP280;10403;54.092;12.122;2023-08-30T12:15:13;100741.63;;;22.58
20490;BMP280;10403;54.092;12.122;2023-08-30T12:17:45;100743.97;;;22.63
20490;BMP280;10403;54.092;12.122;2023-08-30T12:20:17;100737.06;;;22.60
20490;BMP280;10403;54.092;12.122;2023-08-30T12:22:45;100745.69;;;22.64
20490;BMP280;10403;54.092;12.122;2023-08-30T12:25:22;100757.31;;;22.63
20490;BMP280;10403;54.092;12.122;2023-08-30T12:27:53;100750.41;;;22.60
20490;BMP280;10403;54.092;12.122;2023-08-30T12:30:21;100744.09;;;22.61
20490;BMP280;10403;54.092;12.122;2023-08-30T12:32:49;100749.31;;;22.63
20490;BMP280;10403;54.092;12.122;2023-08-30T12:35:16;100741.53;;;22.60
20490;BMP280;10403;54.092;12.122;2023-08-30T12:37:43;100733.81;;;22.55
20490;BMP280;10403;54.092;12.122;2023-08-30T12:40:11;100738.09;;;22.58
20490;BMP280;10403;54.092;12.122;2023-08-30T12:42:39;100739.06;;;22.57
20490;BMP280;10403;54.092;12.122;2023-08-30T12:45:07;100734.78;;;22.54
20490;BMP280;10403;54.092;12.122;2023-08-30T12:47:35;100739.38;;;22.52
20490;BMP280;10403;54.092;12.122;2023-08-30T12:50:04;100719.28;;;22.46
20490;BMP280;10403;54.092;12.122;2023-08-30T12:52:32;100727.94;;;22.50
20490;BMP280;10403;54.092;12.122;2023-08-30T12:54:59;100727.63;;;22.55
20490;BMP280;10403;54.092;12.122;2023-08-30T12:57:26;100720.03;;;22.48
20490;BMP280;10403;54.092;12.122;2023-08-30T12:59:53;100731.47;;;22.50
20490;BMP280;10403;54.092;12.122;2023-08-30T13:02:20;100720.13;;;22.47
20490;BMP280;10403;54.092;12.122;2023-08-30T13:04:48;100728.31;;;22.44
20490;BMP280;10403;54.092;12.122;2023-08-30T13:07:15;100728.63;;;22.39
20490;BMP280;10403;54.092;12.122;2023-08-30T13:09:42;100720.03;;;22.34
20490;BMP280;10403;54.092;12.122;2023-08-30T13:12:09;100725.00;;;22.26
20490;BMP280;10403;54.092;12.122;2023-08-30T13:14:36;100733.47;;;22.19
20490;BMP280;10403;54.092;12.122;2023-08-30T13:17:04;100730.34;;;22.12
20490;BMP280;10403;54.092;12.122;2023-08-30T13:19:31;100730.81;;;22.04
20490;BMP280;10403;54.092;12.122;2023-08-30T13:21:58;100730.41;;;21.96
20490;BMP280;10403;54.092;12.122;2023-08-30T13:24:25;100730.09;;;21.87
20490;BMP280;10403;54.092;12.122;2023-08-30T13:26:53;100734.66;;;21.85
20490;BMP280;10403;54.092;12.122;2023-08-30T13:29:20;100734.97;;;21.80
20490;BMP280;10403;54.092;12.122;2023-08-30T13:31:47;100733.50;;;21.74
20490;BMP280;10403;54.092;12.122;2023-08-30T13:34:14;100738.94;;;21.73
20490;BMP280;10403;54.092;12.122;2023-08-30T13:36:42;100736.47;;;21.70
20490;BMP280;10403;54.092;12.122;2023-08-30T13:39:09;100725.34;;;21.63
20490;BMP280;10403;54.092;12.122;2023-08-30T13:41:36;100731.97;;;21.56
20490;BMP280;10403;54.092;12.122;2023-08-30T13:44:04;100727.59;;;21.55
20490;BMP280;10403;54.092;12.122;2023-08-30T13:46:32;100740.22;;;21.52
20490;BMP280;10403;54.092;12.122;2023-08-30T13:49:00;100715.03;;;21.43
20490;BMP280;10403;54.092;12.122;2023-08-30T13:51:27;100723.00;;;21.43
20490;BMP280;10403;54.092;12.122;2023-08-30T13:53:54;100730.22;;;21.41
20490;BMP280;10403;54.092;12.122;2023-08-30T13:56:22;100729.44;;;21.39
20490;BMP280;10403;54.092;12.122;2023-08-30T13:58:50;100722.69;;;21.33